createdAt,value
2018-09-15T00:00:51.877Z,1002.14
2018-09-15T00:01:51.912Z,1002.18
2018-09-15T00:02:51.948Z,1002.18
2018-09-15T00:03:51.982Z,1002.18
2018-09-15T00:04:52.016Z,1002.22
2018-09-15T00:05:52.052Z,1002.23
2018-09-15T00:06:52.089Z,1002.21
2018-09-15T00:07:52.121Z,1002.21
2018-09-15T00:08:52.157Z,1002.23
2018-09-15T00:09:52.192Z,1002.27
2018-09-15T00:10:52.229Z,1002.24
2018-09-15T00:11:52.262Z,1002.28
2018-09-15T00:12:52.296Z,1002.27
2018-09-15T00:13:52.332Z,1002.27
2018-09-15T00:14:52.371Z,1002.30
2018-09-15T00:15:52.400Z,1002.31
2018-09-15T00:16:52.435Z,1002.33
2018-09-15T00:17:52.469Z,1002.31
2018-09-15T00:18:52.505Z,1002.33
2018-09-15T00:19:52.538Z,1002.31
2018-09-15T00:20:52.573Z,1002.33
2018-09-15T00:21:52.608Z,1002.30
2018-09-15T00:22:52.644Z,1002.30
2018-09-15T00:23:52.676Z,1002.32
2018-09-15T00:24:52.711Z,1002.35
2018-09-15T00:25:52.746Z,1002.33
2018-09-15T00:26:52.781Z,1002.39
2018-09-15T00:27:52.815Z,1002.34
2018-09-15T00:28:52.850Z,1002.31
2018-09-15T00:29:52.884Z,1002.43
2018-09-15T00:30:52.919Z,1002.41
2018-09-15T00:31:52.952Z,1002.42
2018-09-15T00:32:52.986Z,1002.37
2018-09-15T00:33:53.021Z,1002.37
2018-09-15T00:34:53.056Z,1002.37
2018-09-15T00:35:53.089Z,1002.41
2018-09-15T00:36:53.124Z,1002.43
2018-09-15T00:37:53.160Z,1002.39
2018-09-15T00:38:53.195Z,1002.43
2018-09-15T00:39:53.227Z,1002.43
2018-09-15T00:40:53.260Z,1002.43
2018-09-15T00:41:53.347Z,1002.43
2018-09-15T00:42:53.328Z,1002.40
2018-09-15T00:43:53.361Z,1002.39
2018-09-15T00:44:53.396Z,1002.46
2018-09-15T00:45:53.430Z,1002.40
2018-09-15T00:46:53.466Z,1002.42
2018-09-15T00:47:53.497Z,1002.44
2018-09-15T00:48:53.536Z,1002.47
2018-09-15T00:49:53.566Z,1002.46
2018-09-15T00:50:53.605Z,1002.42
2018-09-15T00:51:53.634Z,1002.47
2018-09-15T00:52:53.668Z,1002.48
2018-09-15T00:53:53.702Z,1002.47
2018-09-15T00:54:53.737Z,1002.50
2018-09-15T00:55:53.770Z,1002.47
2018-09-15T00:56:53.805Z,1002.47
2018-09-15T00:57:53.840Z,1002.44
2018-09-15T00:58:53.873Z,1002.48
2018-09-15T00:59:53.909Z,1002.45
2018-09-15T01:00:53.941Z,1002.40
2018-09-15T01:01:53.977Z,1002.38
2018-09-15T01:02:54.010Z,1002.38
2018-09-15T01:03:54.091Z,1002.38
2018-09-15T01:04:54.077Z,1002.35
2018-09-15T01:05:54.110Z,1002.33
2018-09-15T01:06:54.146Z,1002.37
2018-09-15T01:07:54.178Z,1002.37
2018-09-15T01:08:54.212Z,1002.36
2018-09-15T01:09:54.246Z,1002.40
2018-09-15T01:10:54.280Z,1002.41
2018-09-15T01:11:54.313Z,1002.41
2018-09-15T01:12:54.347Z,1002.45
2018-09-15T01:13:54.445Z,1002.46
2018-09-15T01:14:54.415Z,1002.48
2018-09-15T01:15:54.448Z,1002.53
2018-09-15T01:16:54.483Z,1002.49
2018-09-15T01:17:54.519Z,1002.56
2018-09-15T01:18:54.551Z,1002.56
2018-09-15T01:19:54.617Z,1002.55
2018-09-15T01:20:54.617Z,1002.55
2018-09-15T01:21:54.651Z,1002.56
2018-09-15T01:22:54.685Z,1002.60
2018-09-15T01:23:54.719Z,1002.54
2018-09-15T01:24:54.754Z,1002.57
2018-09-15T01:25:54.817Z,1002.58
2018-09-15T01:26:54.821Z,1002.58
2018-09-15T01:27:54.854Z,1002.64
2018-09-15T01:28:54.888Z,1002.60
2018-09-15T01:29:54.922Z,1002.58
2018-09-15T01:30:54.956Z,1002.53
2018-09-15T01:31:54.989Z,1002.52
2018-09-15T01:32:55.023Z,1002.53
2018-09-15T01:33:55.058Z,1002.56
2018-09-15T01:34:55.092Z,1002.55
2018-09-15T01:35:55.125Z,1002.61
2018-09-15T01:36:55.164Z,1002.63
2018-09-15T01:37:55.194Z,1002.60
2018-09-15T01:38:55.277Z,1002.59
2018-09-15T01:39:55.262Z,1002.61
2018-09-15T01:40:55.293Z,1002.60
2018-09-15T01:41:55.329Z,1002.63
2018-09-15T01:42:55.363Z,1002.64
2018-09-15T01:43:55.396Z,1002.62
2018-09-15T01:44:55.434Z,1002.61
2018-09-15T01:45:55.464Z,1002.59
2018-09-15T01:46:55.500Z,1002.58
2018-09-15T01:47:55.531Z,1002.58
2018-09-15T01:48:55.565Z,1002.59
2018-09-15T01:49:55.600Z,1002.55
2018-09-15T01:50:55.634Z,1002.55
2018-09-15T01:51:55.666Z,1002.60
2018-09-15T01:52:55.701Z,1002.56
2018-09-15T01:53:55.734Z,1002.59
2018-09-15T01:54:55.770Z,1002.58
2018-09-15T01:55:55.802Z,1002.60
2018-09-15T01:56:55.835Z,1002.63
2018-09-15T01:57:55.870Z,1002.63
2018-09-15T01:58:55.904Z,1002.65
2018-09-15T01:59:55.937Z,1002.62
2018-09-15T02:00:55.971Z,1002.61
2018-09-15T02:01:56.005Z,1002.63
2018-09-15T02:02:56.039Z,1002.62
2018-09-15T02:03:56.072Z,1002.59
2018-09-15T02:04:56.106Z,1002.59
2018-09-15T02:05:56.139Z,1002.59
2018-09-15T02:06:56.174Z,1002.55
2018-09-15T02:07:56.206Z,1002.61
2018-09-15T02:08:56.240Z,1002.59
2018-09-15T02:09:56.276Z,1002.65
2018-09-15T02:10:56.307Z,1002.61
2018-09-15T02:11:56.340Z,1002.60
2018-09-15T02:12:56.375Z,1002.64
2018-09-15T02:13:56.409Z,1002.59
2018-09-15T02:14:56.444Z,1002.57
2018-09-15T02:15:56.476Z,1002.57
2018-09-15T02:16:56.509Z,1002.60
2018-09-15T02:17:56.548Z,1002.55
2018-09-15T02:18:56.577Z,1002.57
2018-09-15T02:19:56.610Z,1002.53
2018-09-15T02:20:56.643Z,1002.53
2018-09-15T02:21:56.678Z,1002.54
2018-09-15T02:22:56.761Z,1002.56
2018-09-15T02:23:56.747Z,1002.57
2018-09-15T02:24:56.779Z,1002.58
2018-09-15T02:25:56.812Z,1002.63
2018-09-15T02:26:56.845Z,1002.62
2018-09-15T02:27:56.879Z,1002.63
2018-09-15T02:28:56.957Z,1002.62
2018-09-15T02:29:56.946Z,1002.64
2018-09-15T02:30:56.980Z,1002.66
2018-09-15T02:31:57.013Z,1002.66
2018-09-15T02:32:57.047Z,1002.71
2018-09-15T02:33:57.081Z,1002.70
2018-09-15T02:34:57.113Z,1002.67
2018-09-15T02:35:57.153Z,1002.71
2018-09-15T02:36:57.180Z,1002.71
2018-09-15T02:37:57.214Z,1002.68
2018-09-15T02:38:57.248Z,1002.72
2018-09-15T02:39:57.331Z,1002.72
2018-09-15T02:40:57.313Z,1002.66
2018-09-15T02:41:57.348Z,1002.73
2018-09-15T02:42:57.384Z,1002.72
2018-09-15T02:43:57.414Z,1002.75
2018-09-15T02:44:57.448Z,1002.76
2018-09-15T02:45:57.481Z,1002.76
2018-09-15T02:46:57.516Z,1002.76
2018-09-15T02:47:57.549Z,1002.75
2018-09-15T02:48:57.581Z,1002.77
2018-09-15T02:49:57.615Z,1002.79
2018-09-15T02:50:57.652Z,1002.76
2018-09-15T02:51:57.682Z,1002.75
2018-09-15T02:52:57.716Z,1002.76
2018-09-15T02:53:57.748Z,1002.77
2018-09-15T02:54:57.785Z,1002.77
2018-09-15T02:55:57.814Z,1002.75
2018-09-15T02:56:57.848Z,1002.73
2018-09-15T02:57:57.884Z,1002.77
2018-09-15T02:58:57.915Z,1002.72
2018-09-15T02:59:57.947Z,1002.74
2018-09-15T03:00:57.982Z,1002.70
2018-09-15T03:01:58.015Z,1002.77
2018-09-15T03:02:58.050Z,1002.81
2018-09-15T03:03:58.083Z,1002.76
2018-09-15T03:04:58.114Z,1002.78
2018-09-15T03:05:58.149Z,1002.75
2018-09-15T03:06:58.182Z,1002.71
2018-09-15T03:07:58.215Z,1002.77
2018-09-15T03:08:58.249Z,1002.75
2018-09-15T03:09:58.281Z,1002.77
2018-09-15T03:10:58.317Z,1002.78
2018-09-15T03:11:58.352Z,1002.77
2018-09-15T03:12:58.381Z,1002.77
2018-09-15T03:13:58.414Z,1002.78
2018-09-15T03:14:58.448Z,1002.77
2018-09-15T03:15:58.482Z,1002.80
2018-09-15T03:16:58.514Z,1002.81
2018-09-15T03:17:58.546Z,1002.82
2018-09-15T03:18:58.579Z,1002.84
2018-09-15T03:19:58.613Z,1002.86
2018-09-15T03:20:58.647Z,1002.86
2018-09-15T03:21:58.680Z,1002.94
2018-09-15T03:22:58.712Z,1002.94
2018-09-15T03:23:58.744Z,1002.92
2018-09-15T03:24:58.778Z,1002.96
2018-09-15T03:25:58.812Z,1002.99
2018-09-15T03:26:58.845Z,1002.99
2018-09-15T03:27:58.877Z,1003.01
2018-09-15T03:28:58.909Z,1002.99
2018-09-15T03:29:58.943Z,1003.00
2018-09-15T03:30:58.977Z,1003.01
2018-09-15T03:31:59.009Z,1003.04
2018-09-15T03:32:59.043Z,1003.03
2018-09-15T03:33:59.076Z,1003.02
2018-09-15T03:34:59.108Z,1003.06
2018-09-15T03:35:59.140Z,1003.04
2018-09-15T03:36:59.173Z,1003.08
2018-09-15T03:37:59.216Z,1003.07
2018-09-15T03:38:59.241Z,1003.10
2018-09-15T03:39:59.272Z,1003.13
2018-09-15T03:40:59.304Z,1003.17
2018-09-15T03:41:59.457Z,1003.13
2018-09-15T03:42:59.372Z,1003.17
2018-09-15T03:43:59.404Z,1003.19
2018-09-15T03:44:59.435Z,1003.15
2018-09-15T03:45:59.471Z,1003.17
2018-09-15T03:46:59.501Z,1003.17
2018-09-15T03:47:59.533Z,1003.19
2018-09-15T03:48:59.566Z,1003.13
2018-09-15T03:49:59.600Z,1003.15
2018-09-15T03:50:59.632Z,1003.19
2018-09-15T03:51:59.664Z,1003.18
2018-09-15T03:52:59.700Z,1003.18
2018-09-15T03:53:59.729Z,1003.15
2018-09-15T03:54:59.763Z,1003.19
2018-09-15T03:55:59.799Z,1003.22
2018-09-15T03:56:59.826Z,1003.23
2018-09-15T03:57:59.861Z,1003.18
2018-09-15T03:58:59.893Z,1003.21
2018-09-15T03:59:59.948Z,1003.22
2018-09-15T04:00:59.959Z,1003.26
2018-09-15T04:01:59.993Z,1003.25
2018-09-15T04:03:00.025Z,1003.25
2018-09-15T04:04:00.056Z,1003.30
2018-09-15T04:05:00.088Z,1003.32
2018-09-15T04:06:00.121Z,1003.38
2018-09-15T04:07:00.156Z,1003.36
2018-09-15T04:08:00.186Z,1003.39
2018-09-15T04:09:00.218Z,1003.40
2018-09-15T04:10:00.251Z,1003.40
2018-09-15T04:11:00.315Z,1003.39
2018-09-15T04:12:00.314Z,1003.40
2018-09-15T04:13:00.346Z,1003.43
2018-09-15T04:14:00.380Z,1003.40
2018-09-15T04:15:00.413Z,1003.46
2018-09-15T04:16:00.447Z,1003.45
2018-09-15T04:17:00.481Z,1003.46
2018-09-15T04:18:00.511Z,1003.45
2018-09-15T04:19:00.552Z,1003.46
2018-09-15T04:20:00.574Z,1003.52
2018-09-15T04:21:00.609Z,1003.50
2018-09-15T04:22:00.637Z,1003.53
2018-09-15T04:23:00.672Z,1003.51
2018-09-15T04:24:00.703Z,1003.51
2018-09-15T04:25:00.734Z,1003.50
2018-09-15T04:26:00.767Z,1003.56
2018-09-15T04:27:00.805Z,1003.55
2018-09-15T04:28:00.833Z,1003.57
2018-09-15T04:29:00.863Z,1003.57
2018-09-15T04:30:00.896Z,1003.58
2018-09-15T04:31:00.929Z,1003.61
2018-09-15T04:32:00.960Z,1003.61
2018-09-15T04:33:00.992Z,1003.64
2018-09-15T04:34:01.026Z,1003.67
2018-09-15T04:35:01.057Z,1003.67
2018-09-15T04:36:01.111Z,1003.65
2018-09-15T04:37:01.121Z,1003.67
2018-09-15T04:38:01.482Z,1003.72
2018-09-15T04:39:01.184Z,1003.72
2018-09-15T04:40:01.217Z,1003.71
2018-09-15T04:41:01.249Z,1003.75
2018-09-15T04:42:01.282Z,1003.75
2018-09-15T04:43:01.323Z,1003.78
2018-09-15T04:44:01.345Z,1003.78
2018-09-15T04:45:01.379Z,1003.79
2018-09-15T04:46:01.409Z,1003.82
2018-09-15T04:47:01.442Z,1003.80
2018-09-15T04:48:01.476Z,1003.84
2018-09-15T04:49:01.710Z,1003.82
2018-09-15T04:50:01.537Z,1003.86
2018-09-15T04:51:01.579Z,1003.87
2018-09-15T04:52:01.606Z,1003.89
2018-09-15T04:53:01.631Z,1003.90
2018-09-15T04:54:01.669Z,1003.89
2018-09-15T04:55:01.705Z,1003.88
2018-09-15T04:56:01.729Z,1003.90
2018-09-15T04:57:01.762Z,1003.90
2018-09-15T04:58:01.795Z,1003.93
2018-09-15T04:59:01.827Z,1003.92
2018-09-15T05:00:01.863Z,1003.93
2018-09-15T05:01:01.900Z,1003.92
2018-09-15T05:02:01.929Z,1003.93
2018-09-15T05:03:01.951Z,1003.94
2018-09-15T05:04:01.982Z,1003.93
2018-09-15T05:05:02.024Z,1003.96
2018-09-15T05:06:02.050Z,1003.92
2018-09-15T05:07:02.080Z,1003.92
2018-09-15T05:08:02.112Z,1003.95
2018-09-15T05:09:02.142Z,1003.95
2018-09-15T05:10:02.176Z,1004.00
2018-09-15T05:11:02.205Z,1003.97
2018-09-15T05:12:02.440Z,1004.00
2018-09-15T05:13:02.347Z,1004.01
2018-09-15T05:14:02.324Z,1004.02
2018-09-15T05:15:02.335Z,1004.03
2018-09-15T05:16:02.367Z,1004.05
2018-09-15T05:17:02.398Z,1004.04
2018-09-15T05:18:02.430Z,1004.00
2018-09-15T05:19:02.463Z,1004.04
2018-09-15T05:20:02.494Z,1004.05
2018-09-15T05:21:02.525Z,1004.06
2018-09-15T05:22:02.559Z,1004.03
2018-09-15T05:23:02.590Z,1004.02
2018-09-15T05:24:02.621Z,1004.05
2018-09-15T05:25:02.676Z,1004.06
2018-09-15T05:26:02.686Z,1004.06
2018-09-15T05:27:02.718Z,1004.05
2018-09-15T05:28:02.748Z,1004.05
2018-09-15T05:29:03.516Z,1004.04
2018-09-15T05:30:02.816Z,1004.00
2018-09-15T05:31:02.844Z,1004.00
2018-09-15T05:33:03.441Z,1004.03
2018-09-15T05:34:02.939Z,1004.03
2018-09-15T05:35:02.974Z,1004.04
2018-09-15T05:36:03.002Z,1004.03
2018-09-15T05:37:03.055Z,1004.02
2018-09-15T05:40:05.692Z,1004.03
2018-09-15T05:41:05.724Z,1004.08
2018-09-15T05:42:05.758Z,1004.09
2018-09-15T05:43:05.788Z,1004.09
2018-09-15T05:44:05.818Z,1004.11
2018-09-15T05:45:05.851Z,1004.12
2018-09-15T05:46:05.883Z,1004.12
2018-09-15T05:47:05.917Z,1004.15
2018-09-15T05:48:05.950Z,1004.16
2018-09-15T05:49:05.979Z,1004.16
2018-09-15T05:50:06.010Z,1004.18
2018-09-15T05:51:06.045Z,1004.16
2018-09-15T05:52:06.076Z,1004.20
2018-09-15T05:53:06.105Z,1004.23
2018-09-15T05:54:06.137Z,1004.27
2018-09-15T05:55:06.173Z,1004.27
2018-09-15T05:56:06.274Z,1004.25
2018-09-15T05:57:06.234Z,1004.30
2018-09-15T05:58:06.265Z,1004.37
2018-09-15T05:59:06.298Z,1004.34
2018-09-15T06:00:06.328Z,1004.38
2018-09-15T06:01:06.361Z,1004.39
2018-09-15T06:02:06.392Z,1004.41
2018-09-15T06:03:06.425Z,1004.46
2018-09-15T06:04:06.457Z,1004.49
2018-09-15T06:05:06.487Z,1004.47
2018-09-15T06:06:06.522Z,1004.50
2018-09-15T06:07:06.552Z,1004.56
2018-09-15T06:08:06.592Z,1004.48
2018-09-15T06:09:06.617Z,1004.48
2018-09-15T06:10:06.648Z,1004.47
2018-09-15T06:11:06.681Z,1004.50
2018-09-15T06:12:06.712Z,1004.45
2018-09-15T06:13:06.745Z,1004.44
2018-09-15T06:16:32.654Z,1004.46
2018-09-15T06:17:32.686Z,1004.49
2018-09-15T06:18:32.721Z,1004.47
2018-09-15T06:19:32.754Z,1004.49
2018-09-15T06:20:32.784Z,1004.52
2018-09-15T06:21:32.817Z,1004.50
2018-09-15T06:22:32.848Z,1004.53
2018-09-15T06:29:25.423Z,1004.58
2018-09-15T06:30:25.458Z,1004.55
2018-09-15T06:31:25.488Z,1004.58
2018-09-15T06:32:25.519Z,1004.59
2018-09-15T06:33:25.554Z,1004.55
2018-09-15T06:34:25.583Z,1004.57
2018-09-15T06:35:25.617Z,1004.60
2018-09-15T06:36:25.648Z,1004.57
2018-09-15T06:37:25.681Z,1004.57
2018-09-15T06:38:25.714Z,1004.58
2018-09-15T06:39:25.821Z,1004.60
2018-09-15T06:40:25.779Z,1004.61
2018-09-15T06:41:25.812Z,1004.58
2018-09-15T06:42:25.844Z,1004.58
2018-09-15T06:43:25.876Z,1004.61
2018-09-15T06:44:25.909Z,1004.66
2018-09-15T06:45:25.962Z,1004.63
2018-09-15T06:46:25.975Z,1004.66
2018-09-15T06:47:26.008Z,1004.67
2018-09-15T06:48:26.041Z,1004.64
2018-09-15T06:49:26.075Z,1004.67
2018-09-15T06:50:26.105Z,1004.69
2018-09-15T06:51:26.189Z,1004.69
2018-09-15T06:52:26.174Z,1004.68
2018-09-15T06:53:26.203Z,1004.72
2018-09-15T06:54:26.238Z,1004.75
2018-09-15T06:55:26.269Z,1004.74
2018-09-15T06:56:26.300Z,1004.72
2018-09-15T06:57:26.335Z,1004.74
2018-09-15T06:58:26.366Z,1004.77
2018-09-15T06:59:26.402Z,1004.76
2018-09-15T07:00:26.432Z,1004.78
2018-09-15T07:01:26.466Z,1004.82
2018-09-15T07:02:26.499Z,1004.81
2018-09-15T07:03:26.533Z,1004.82
2018-09-15T07:04:26.564Z,1004.83
2018-09-15T07:05:26.599Z,1004.83
2018-09-15T07:06:26.631Z,1004.86
2018-09-15T07:07:26.664Z,1004.86
2018-09-15T07:08:26.696Z,1004.87
2018-09-15T07:09:26.730Z,1004.86
2018-09-15T07:10:26.765Z,1004.84
2018-09-15T07:11:26.801Z,1004.85
2018-09-15T07:12:26.830Z,1004.83
2018-09-15T07:13:26.869Z,1004.87
2018-09-15T07:14:26.897Z,1004.84
2018-09-15T07:15:26.933Z,1004.84
2018-09-15T07:16:26.963Z,1004.83
2018-09-15T07:17:26.996Z,1004.87
2018-09-15T07:18:27.030Z,1004.87
2018-09-15T07:19:27.067Z,1004.89
2018-09-15T07:20:27.095Z,1004.91
2018-09-15T07:21:27.130Z,1004.90
2018-09-15T07:22:27.166Z,1004.96
2018-09-15T07:23:27.197Z,1004.91
2018-09-15T07:24:27.231Z,1004.94
2018-09-15T07:25:27.265Z,1004.98
2018-09-15T07:26:27.299Z,1004.98
2018-09-15T07:27:27.334Z,1004.97
2018-09-15T07:28:27.364Z,1005.01
2018-09-15T07:29:27.400Z,1005.02
2018-09-15T07:30:27.435Z,1005.00
2018-09-15T07:31:27.496Z,1005.01
2018-09-15T07:32:27.502Z,1005.00
2018-09-15T07:33:27.536Z,1005.02
2018-09-15T07:34:27.571Z,1005.04
2018-09-15T07:35:27.605Z,1005.08
2018-09-15T07:36:27.638Z,1005.08
2018-09-15T07:37:27.739Z,1005.10
2018-09-15T07:38:27.709Z,1005.10
2018-09-15T07:39:27.742Z,1005.13
2018-09-15T07:40:27.775Z,1005.16
2018-09-15T07:41:27.810Z,1005.12
2018-09-15T07:42:27.848Z,1005.05
2018-09-15T07:43:27.880Z,1005.07
2018-09-15T07:44:27.913Z,1005.04
2018-09-15T07:45:27.949Z,1005.06
2018-09-15T07:46:27.984Z,1005.10
2018-09-15T07:47:28.020Z,1005.08
2018-09-15T07:48:28.055Z,1005.11
2018-09-15T07:49:28.092Z,1005.10
2018-09-15T07:50:28.124Z,1005.07
2018-09-15T07:51:28.220Z,1005.05
2018-09-15T07:52:28.194Z,1005.07
2018-09-15T07:53:28.227Z,1005.12
2018-09-15T07:54:28.264Z,1005.09
2018-09-15T07:55:28.299Z,1005.09
2018-09-15T07:56:28.333Z,1005.10
2018-09-15T07:57:28.395Z,1005.11
2018-09-15T07:58:28.406Z,1005.11
2018-09-15T07:59:28.441Z,1005.10
2018-09-15T08:00:28.475Z,1005.11
2018-09-15T08:01:28.511Z,1005.04
2018-09-15T08:02:28.548Z,1005.09
2018-09-15T08:03:28.585Z,1005.02
2018-09-15T08:04:28.620Z,1005.04
2018-09-15T08:05:28.654Z,1004.99
2018-09-15T08:06:28.691Z,1005.04
2018-09-15T08:07:28.725Z,1005.04
2018-09-15T08:08:28.761Z,1005.04
2018-09-15T08:09:28.797Z,1005.01
2018-09-15T08:10:28.835Z,1005.05
2018-09-15T08:11:28.870Z,1005.05
2018-09-15T08:12:28.905Z,1005.06
2018-09-15T08:13:28.943Z,1005.08
2018-09-15T08:14:28.983Z,1005.07
2018-09-15T08:15:29.017Z,1005.06
2018-09-15T08:16:29.052Z,1005.05
2018-09-15T08:17:29.091Z,1005.02
2018-09-15T08:18:29.125Z,1005.09
2018-09-15T08:19:29.164Z,1005.10
2018-09-15T08:20:29.198Z,1005.10
2018-09-15T08:21:29.237Z,1005.07
2018-09-15T08:22:29.273Z,1005.18
2018-09-15T08:23:29.314Z,1005.12
2018-09-15T08:24:29.347Z,1005.16
2018-09-15T08:25:29.384Z,1005.14
2018-09-15T08:26:29.458Z,1005.17
2018-09-15T08:27:29.496Z,1005.22
2018-09-15T08:28:29.496Z,1005.16
2018-09-15T08:29:29.534Z,1005.16
2018-09-15T08:30:29.570Z,1005.15
2018-09-15T08:31:29.609Z,1005.15
2018-09-15T08:32:29.644Z,1005.16
2018-09-15T08:33:29.685Z,1005.17
2018-09-15T08:34:29.721Z,1005.18
2018-09-15T08:35:29.759Z,1005.18
2018-09-15T08:36:29.796Z,1005.13
2018-09-15T08:37:29.851Z,1005.10
2018-09-15T08:38:29.891Z,1005.12
2018-09-15T08:39:29.911Z,1005.11
2018-09-15T08:40:29.948Z,1005.19
2018-09-15T08:41:29.985Z,1005.10
2018-09-15T08:42:30.024Z,1005.12
2018-09-15T08:43:30.063Z,1005.09
2018-09-15T08:44:30.099Z,1005.11
2018-09-15T08:45:30.138Z,1005.18
2018-09-15T08:46:30.177Z,1005.13
2018-09-15T08:47:30.219Z,1005.15
2018-09-15T08:48:30.259Z,1005.12
2018-09-15T08:49:30.291Z,1005.14
2018-09-15T08:50:30.330Z,1005.17
2018-09-15T08:51:30.372Z,1005.17
2018-09-15T08:52:30.405Z,1005.15
2018-09-15T08:53:30.445Z,1005.19
2018-09-15T08:54:30.484Z,1005.21
2018-09-15T08:55:30.524Z,1005.23
2018-09-15T08:56:30.562Z,1005.19
2018-09-15T08:57:30.603Z,1005.25
2018-09-15T08:58:30.643Z,1005.29
2018-09-15T08:59:30.681Z,1005.43
2018-09-15T09:00:30.721Z,1005.52
2018-09-15T09:01:31.614Z,1005.56
2018-09-15T09:02:30.803Z,1005.61
2018-09-15T09:03:30.849Z,1005.61
2018-09-15T09:04:30.883Z,1005.60
2018-09-15T09:05:30.925Z,1005.67
2018-09-15T09:06:30.967Z,1005.61
2018-09-15T09:07:31.010Z,1005.61
2018-09-15T09:08:31.050Z,1005.66
2018-09-15T09:09:31.093Z,1005.67
2018-09-15T09:10:31.138Z,1005.67
2018-09-15T09:11:31.180Z,1005.68
2018-09-15T09:12:31.221Z,1005.71
2018-09-15T09:13:31.263Z,1005.69
2018-09-15T09:14:31.360Z,1005.75
2018-09-15T09:15:31.351Z,1005.77
2018-09-15T09:16:31.394Z,1005.78
2018-09-15T09:17:31.443Z,1005.69
2018-09-15T09:18:31.483Z,1005.72
2018-09-15T09:19:31.528Z,1005.72
2018-09-15T09:20:31.571Z,1005.76
2018-09-15T09:21:31.614Z,1005.75
2018-09-15T09:22:31.659Z,1005.76
2018-09-15T09:23:31.705Z,1005.78
2018-09-15T09:24:31.751Z,1005.77
2018-09-15T09:25:31.796Z,1005.78
2018-09-15T09:26:31.920Z,1005.74
2018-09-15T09:27:31.912Z,1005.78
2018-09-15T09:28:31.933Z,1005.77
2018-09-15T09:29:31.978Z,1005.84
2018-09-15T09:30:32.249Z,1005.76
2018-09-15T09:31:32.072Z,1005.67
2018-09-15T09:32:32.119Z,1005.69
2018-09-15T09:33:32.162Z,1005.67
2018-09-15T09:34:32.209Z,1005.69
2018-09-15T09:35:32.254Z,1005.86
2018-09-15T09:36:32.301Z,1005.78
2018-09-15T09:37:32.346Z,1005.78
2018-09-15T09:38:32.392Z,1005.91
2018-09-15T09:39:32.440Z,1005.95
2018-09-15T09:40:32.485Z,1005.96
2018-09-15T09:41:32.630Z,1006.01
2018-09-15T09:42:32.581Z,1005.97
2018-09-15T09:43:32.627Z,1006.00
2018-09-15T09:44:32.677Z,1005.99
2018-09-15T09:45:32.722Z,1006.03
2018-09-15T09:46:34.185Z,1005.99
2018-09-15T09:47:32.837Z,1005.99
2018-09-15T09:48:32.882Z,1006.03
2018-09-15T09:49:32.916Z,1006.00
2018-09-15T09:50:33.972Z,1006.01
2018-09-15T09:51:34.018Z,1006.03
2018-09-15T09:52:33.055Z,1006.08
2018-09-15T09:53:33.103Z,1006.04
2018-09-15T09:54:33.158Z,1006.05
2018-09-15T09:55:33.200Z,1006.06
2018-09-15T09:56:33.854Z,1006.04
2018-09-15T09:57:33.304Z,1006.08
2018-09-15T09:58:33.370Z,1006.08
2018-09-15T09:59:33.396Z,1006.10
2018-09-15T10:00:33.444Z,1006.16
2018-09-15T10:01:33.493Z,1006.14
2018-09-15T10:02:33.543Z,1006.14
2018-09-15T10:03:33.593Z,1006.16
2018-09-15T10:05:33.692Z,1006.17
2018-09-15T10:06:33.738Z,1006.18
2018-09-15T10:07:33.789Z,1006.20
2018-09-15T10:08:33.837Z,1006.21
2018-09-15T10:09:33.888Z,1006.23
2018-09-15T10:10:33.938Z,1006.26
2018-09-15T10:11:33.986Z,1006.25
2018-09-15T10:12:34.037Z,1006.26
2018-09-15T10:13:34.086Z,1006.20
2018-09-15T10:14:34.134Z,1006.21
2018-09-15T10:15:34.186Z,1006.16
2018-09-15T10:16:34.234Z,1006.21
2018-09-15T10:17:34.284Z,1006.21
2018-09-15T10:18:34.336Z,1006.16
2018-09-15T10:19:34.387Z,1006.22
2018-09-15T10:20:34.434Z,1006.18
2018-09-15T10:21:34.551Z,1006.27
2018-09-15T10:22:34.536Z,1006.27
2018-09-15T10:23:34.587Z,1006.30
2018-09-15T10:24:34.636Z,1006.30
2018-09-15T10:25:34.688Z,1006.32
2018-09-15T10:26:34.738Z,1006.36
2018-09-15T10:27:34.791Z,1006.31
2018-09-15T10:28:34.839Z,1006.28
2018-09-15T10:29:34.892Z,1006.37
2018-09-15T10:30:34.941Z,1006.37
2018-09-15T10:31:34.998Z,1006.37
2018-09-15T10:32:35.042Z,1006.39
2018-09-15T10:33:35.093Z,1006.35
2018-09-15T10:34:35.146Z,1006.31
2018-09-15T10:35:35.198Z,1006.36
2018-09-15T10:36:35.248Z,1006.33
2018-09-15T10:37:35.297Z,1006.30
2018-09-15T10:38:35.381Z,1006.30
2018-09-15T10:39:35.404Z,1006.32
2018-09-15T10:40:35.449Z,1006.37
2018-09-15T10:41:35.501Z,1006.41
2018-09-15T10:42:35.554Z,1006.35
2018-09-15T10:43:35.601Z,1006.40
2018-09-15T10:44:35.652Z,1006.38
2018-09-15T10:45:35.703Z,1006.46
2018-09-15T10:46:35.797Z,1006.28
2018-09-15T10:47:35.806Z,1006.38
2018-09-15T10:48:35.855Z,1006.40
2018-09-15T10:49:35.907Z,1006.47
2018-09-15T10:50:35.959Z,1006.48
2018-09-15T10:51:36.011Z,1006.54
2018-09-15T10:52:36.060Z,1006.47
2018-09-15T10:53:36.112Z,1006.48
2018-09-15T10:54:36.163Z,1006.47
2018-09-15T10:55:36.212Z,1006.48
2018-09-15T10:56:36.263Z,1006.54
2018-09-15T10:57:36.316Z,1006.46
2018-09-15T10:58:36.392Z,1006.50
2018-09-15T10:59:36.418Z,1006.55
2018-09-15T11:00:36.523Z,1006.58
2018-09-15T11:01:36.521Z,1006.55
2018-09-15T11:02:36.571Z,1006.52
2018-09-15T11:03:36.625Z,1006.52
2018-09-15T11:04:36.676Z,1006.50
2018-09-15T11:05:36.725Z,1006.46
2018-09-15T11:06:37.105Z,1006.56
2018-09-15T11:07:36.850Z,1006.47
2018-09-15T11:08:36.880Z,1006.55
2018-09-15T11:09:36.932Z,1006.59
2018-09-15T11:10:36.983Z,1006.57
2018-09-15T11:11:37.262Z,1006.57
2018-09-15T11:16:37.723Z,1006.54
2018-09-15T11:19:37.454Z,1006.54
2018-09-15T11:20:37.826Z,1006.59
2018-09-15T11:21:37.572Z,1006.57
2018-09-15T11:22:38.774Z,1006.68
2018-09-15T11:23:37.653Z,1006.69
2018-09-15T11:24:37.705Z,1006.67
2018-09-15T11:25:37.760Z,1006.64
2018-09-15T11:28:02.936Z,1006.71
2018-09-15T11:29:03.021Z,1006.73
2018-09-15T11:31:03.091Z,1006.72
2018-09-15T11:32:03.150Z,1006.77
2018-09-15T11:33:03.194Z,1006.71
2018-09-15T11:34:03.300Z,1006.67
2018-09-15T11:35:03.298Z,1006.72
2018-09-15T11:36:03.351Z,1006.72
2018-09-15T11:37:03.402Z,1006.67
2018-09-15T11:38:03.457Z,1006.67
2018-09-15T11:39:03.507Z,1006.63
2018-09-15T11:40:03.562Z,1006.64
2018-09-15T11:41:03.628Z,1006.68
2018-09-15T11:42:03.689Z,1006.63
2018-09-15T11:43:03.715Z,1006.60
2018-09-15T11:44:03.769Z,1006.66
2018-09-15T11:45:03.820Z,1006.62
2018-09-15T11:46:03.872Z,1006.61
2018-09-15T11:47:03.925Z,1006.63
2018-09-15T11:48:04.014Z,1006.61
2018-09-15T11:49:04.030Z,1006.62
2018-09-15T11:50:04.082Z,1006.67
2018-09-15T11:51:04.132Z,1006.64
2018-09-15T11:52:04.186Z,1006.65
2018-09-15T11:53:46.827Z,1006.62
2018-09-15T11:57:27.849Z,1006.68
2018-09-15T11:58:27.880Z,1006.70
2018-09-15T11:59:27.932Z,1006.70
2018-09-15T12:00:27.989Z,1006.69
2018-09-15T12:01:28.035Z,1006.72
2018-09-15T12:02:28.091Z,1006.66
2018-09-15T12:03:28.139Z,1006.66
2018-09-15T12:04:28.191Z,1006.68
2018-09-15T12:05:28.244Z,1006.67
2018-09-15T12:06:28.924Z,1006.67
2018-09-15T12:07:28.349Z,1006.67
2018-09-15T12:08:28.401Z,1006.64
2018-09-15T12:09:28.455Z,1006.68
2018-09-15T12:10:28.508Z,1006.69
2018-09-15T12:11:28.559Z,1006.68
2018-09-15T12:12:28.613Z,1006.64
2018-09-15T12:13:28.670Z,1006.66
2018-09-15T12:14:29.045Z,1006.64
2018-09-15T12:15:28.771Z,1006.63
2018-09-15T12:16:28.824Z,1006.67
2018-09-15T12:17:28.876Z,1006.64
2018-09-15T12:19:26.536Z,1006.66
2018-09-15T12:20:26.589Z,1006.65
2018-09-15T12:21:26.725Z,1006.63
2018-09-15T12:22:26.695Z,1006.67
2018-09-15T12:23:26.748Z,1006.68
2018-09-15T12:24:26.801Z,1006.61
2018-09-15T12:25:26.856Z,1006.63
2018-09-15T12:26:26.908Z,1006.66
2018-09-15T12:27:26.962Z,1006.63
2018-09-15T12:28:27.015Z,1006.64
2018-09-15T12:29:27.068Z,1006.63
2018-09-15T12:30:27.119Z,1006.61
2018-09-15T12:31:27.173Z,1006.58